Time,TemperatureF,DewpointF,PressureIn,WindDirection,WindDirectionDegrees,WindSpeedMPH,WindSpeedGustMPH,Humidity,HourlyPrecipIn,Conditions,Clouds,dailyrainin,SoftwareType,DateUTC
2013-10-28 00:14:00,49.0,44.0,30.10,SSE,159,0.0,2.0,84,0.00,,,0.00,,2013-10-28 04:14:00,
2013-10-28 00:23:00,48.0,44.0,30.10,SSE,160,0.0,0.0,85,0.00,,,0.00,,2013-10-28 04:23:00,
2013-10-28 00:43:00,49.0,45.0,30.10,SSE,159,0.0,1.0,85,0.00,,,0.00,,2013-10-28 04:43:00,
2013-10-28 00:53:00,49.0,45.0,30.10,SSE,159,0.0,0.0,85,0.00,,,0.00,,2013-10-28 04:53:00,
2013-10-28 01:13:00,49.0,45.0,30.10,SSE,159,0.0,1.0,86,0.00,,,0.00,,2013-10-28 05:13:00,
2013-10-28 01:22:00,49.0,45.0,30.10,SSE,160,0.0,0.0,86,0.00,,,0.00,,2013-10-28 05:22:00,
2013-10-28 01:53:00,49.0,45.0,30.09,SSE,160,0.0,0.0,85,0.00,,,0.00,,2013-10-28 05:53:00,
2013-10-28 02:12:00,49.0,45.0,30.10,SSE,159,0.0,0.0,85,0.00,,,0.00,,2013-10-28 06:12:00,
2013-10-28 02:22:00,49.0,45.0,30.10,SSE,159,0.0,1.0,87,0.00,,,0.00,,2013-10-28 06:22:00,
2013-10-28 02:43:00,49.0,45.0,30.09,East,100,0.0,4.0,87,0.00,,,0.00,,2013-10-28 06:43:00,
2013-10-28 02:52:00,48.0,44.0,30.09,ESE,111,1.0,3.0,87,0.00,,,0.00,,2013-10-28 06:52:00,
2013-10-28 03:12:00,48.0,44.0,30.10,ESE,111,0.0,0.0,87,0.00,,,0.00,,2013-10-28 07:12:00,
2013-10-28 03:22:00,48.0,45.0,30.11,ESE,111,0.0,1.0,88,0.00,,,0.00,,2013-10-28 07:22:00,
2013-10-28 03:42:00,48.0,45.0,30.11,ESE,111,0.0,1.0,88,0.00,,,0.00,,2013-10-28 07:42:00,
2013-10-28 03:52:00,48.0,45.0,30.11,ESE,111,0.0,1.0,89,0.00,,,0.00,,2013-10-28 07:52:00,
2013-10-28 04:12:00,48.0,45.0,30.11,ESE,111,0.0,3.0,88,0.00,,,0.00,,2013-10-28 08:12:00,
2013-10-28 04:22:00,48.0,45.0,30.11,ESE,111,0.0,1.0,88,0.00,,,0.00,,2013-10-28 08:22:00,
2013-10-28 04:42:00,48.0,45.0,30.11,ESE,111,0.0,1.0,89,0.00,,,0.00,,2013-10-28 08:42:00,
2013-10-28 04:52:00,48.0,45.0,30.11,ESE,111,0.0,2.0,89,0.00,,,0.00,,2013-10-28 08:52:00,
2013-10-28 05:11:00,47.0,44.0,30.11,ESE,121,0.0,1.0,88,0.00,,,0.00,,2013-10-28 09:11:00,
2013-10-28 05:22:00,47.0,44.0,30.11,ESE,121,0.0,2.0,89,0.00,,,0.00,,2013-10-28 09:22:00,
2013-10-28 05:43:00,47.0,44.0,30.12,ESE,121,0.0,2.0,90,0.00,,,0.00,,2013-10-28 09:43:00,
2013-10-28 05:53:00,47.0,44.0,30.13,ESE,120,0.0,2.0,90,0.00,,,0.00,,2013-10-28 09:53:00,
2013-10-28 06:13:00,47.0,44.0,30.13,ESE,121,0.0,0.0,90,0.00,,,0.00,,2013-10-28 10:13:00,
2013-10-28 06:23:00,47.0,44.0,30.13,ESE,121,0.0,1.0,90,0.00,,,0.00,,2013-10-28 10:23:00,
2013-10-28 06:43:00,46.0,43.0,30.14,ESE,121,0.0,0.0,90,0.00,,,0.00,,2013-10-28 10:43:00,
2013-10-28 06:53:00,46.0,43.0,30.14,ESE,121,0.0,0.0,90,0.00,,,0.00,,2013-10-28 10:53:00,
2013-10-28 07:12:00,46.0,44.0,30.14,ESE,121,1.0,3.0,91,0.00,,,0.00,,2013-10-28 11:12:00,
2013-10-28 07:22:00,47.0,45.0,30.14,ESE,120,1.0,3.0,91,0.00,,,0.00,,2013-10-28 11:22:00,
2013-10-28 07:42:00,47.0,45.0,30.16,ESE,121,0.0,1.0,91,0.00,,,0.00,,2013-10-28 11:42:00,
2013-10-28 07:52:00,47.0,45.0,30.16,ESE,120,0.0,0.0,91,0.00,,,0.00,,2013-10-28 11:52:00,
2013-10-28 08:12:00,47.0,45.0,30.17,ESE,121,0.0,1.0,92,0.00,,,0.00,,2013-10-28 12:12:00,
2013-10-28 08:21:00,47.0,45.0,30.17,ESE,121,0.0,0.0,92,0.00,,,0.00,,2013-10-28 12:21:00,
2013-10-28 08:42:00,47.0,45.0,30.18,ESE,121,0.0,0.0,92,0.01,,,0.01,,2013-10-28 12:42:00,
2013-10-28 08:52:00,47.0,45.0,30.18,ESE,121,0.0,0.0,92,0.01,,,0.01,,2013-10-28 12:52:00,
2013-10-28 09:11:00,48.0,46.0,30.19,ESE,121,0.0,1.0,93,0.01,,,0.01,,2013-10-28 13:11:00,
2013-10-28 09:22:00,48.0,46.0,30.19,ESE,121,0.0,1.0,93,0.01,,,0.01,,2013-10-28 13:22:00,
2013-10-28 09:42:00,48.0,46.0,30.19,ESE,121,0.0,2.0,93,0.00,,,0.01,,2013-10-28 13:42:00,
2013-10-28 09:52:00,48.0,46.0,30.19,ESE,121,0.0,0.0,93,0.00,,,0.01,,2013-10-28 13:52:00,
2013-10-28 10:11:00,50.0,48.0,30.20,ESE,121,0.0,0.0,94,0.00,,,0.01,,2013-10-28 14:11:00,
2013-10-28 10:22:00,50.0,48.0,30.20,ESE,121,0.0,0.0,94,0.00,,,0.01,,2013-10-28 14:22:00,
2013-10-28 10:42:00,50.0,48.0,30.21,ESE,121,0.0,0.0,94,0.00,,,0.01,,2013-10-28 14:42:00,
2013-10-28 10:52:00,50.0,48.0,30.21,ESE,120,0.0,0.0,94,0.00,,,0.01,,2013-10-28 14:52:00,
2013-10-28 11:11:00,50.0,48.0,30.22,ESE,120,0.0,0.0,94,0.00,,,0.01,,2013-10-28 15:11:00,
2013-10-28 11:22:00,50.0,48.0,30.22,ESE,120,0.0,1.0,93,0.00,,,0.01,,2013-10-28 15:22:00,
2013-10-28 11:43:00,52.0,51.0,30.22,ESE,120,0.0,0.0,95,0.00,,,0.01,,2013-10-28 15:43:00,
2013-10-28 11:53:00,52.0,50.0,30.22,ESE,120,0.0,0.0,94,0.00,,,0.01,,2013-10-28 15:53:00,
2013-10-28 12:13:00,54.0,52.0,30.22,ESE,120,0.0,1.0,94,0.00,,,0.01,,2013-10-28 16:13:00,
2013-10-28 12:23:00,54.0,52.0,30.22,ESE,121,0.0,0.0,93,0.00,,,0.01,,2013-10-28 16:23:00,
2013-10-28 12:43:00,54.0,52.0,30.22,ESE,120,0.0,0.0,92,0.01,,,0.02,,2013-10-28 16:43:00,
2013-10-28 12:53:00,54.0,52.0,30.22,ESE,121,0.0,1.0,92,0.01,,,0.02,,2013-10-28 16:53:00,
2013-10-28 13:12:00,54.0,52.0,30.22,ESE,121,0.0,0.0,92,0.03,,,0.04,,2013-10-28 17:12:00,
2013-10-28 13:23:00,54.0,52.0,30.21,ESE,121,0.0,0.0,92,0.04,,,0.05,,2013-10-28 17:23:00,
2013-10-28 13:42:00,54.0,52.0,30.21,ESE,121,0.0,0.0,92,0.04,,,0.06,,2013-10-28 17:42:00,
2013-10-28 13:52:00,54.0,52.0,30.20,ESE,120,0.0,1.0,92,0.04,,,0.06,,2013-10-28 17:52:00,
2013-10-28 14:12:00,54.0,51.0,30.19,ESE,121,0.0,0.0,91,0.02,,,0.06,,2013-10-28 18:12:00,
2013-10-28 14:22:00,54.0,51.0,30.20,ESE,120,0.0,0.0,91,0.01,,,0.06,,2013-10-28 18:22:00,
2013-10-28 14:52:00,55.0,52.0,30.19,ESE,121,0.0,0.0,91,0.00,,,0.06,,2013-10-28 18:52:00,
2013-10-28 15:11:00,56.0,53.0,30.19,ESE,121,0.0,0.0,90,0.00,,,0.06,,2013-10-28 19:11:00,
2013-10-28 15:22:00,56.0,53.0,30.19,ESE,120,0.0,0.0,90,0.00,,,0.06,,2013-10-28 19:22:00,
2013-10-28 15:42:00,57.0,53.0,30.18,SSE,152,0.0,0.0,87,0.00,,,0.06,,2013-10-28 19:42:00,
2013-10-28 15:52:00,57.0,52.0,30.18,SSE,152,0.0,0.0,83,0.00,,,0.06,,2013-10-28 19:52:00,
2013-10-28 16:12:00,57.0,53.0,30.18,SSE,152,0.0,0.0,85,0.00,,,0.06,,2013-10-28 20:12:00,
2013-10-28 16:22:00,57.0,53.0,30.18,SSE,152,0.0,0.0,85,0.00,,,0.06,,2013-10-28 20:22:00,
2013-10-28 16:52:00,57.0,55.0,30.18,SSE,152,0.0,0.0,93,0.00,,,0.06,,2013-10-28 20:52:00,
2013-10-28 17:22:00,57.0,54.0,30.18,SSE,152,0.0,1.0,91,0.00,,,0.06,,2013-10-28 21:22:00,
2013-10-28 17:43:00,56.0,52.0,30.18,SSE,152,0.0,1.0,86,0.00,,,0.06,,2013-10-28 21:43:00,
2013-10-28 17:53:00,56.0,52.0,30.19,SSE,152,0.0,1.0,86,0.00,,,0.06,,2013-10-28 21:53:00,
2013-10-28 18:23:00,55.0,51.0,30.19,SSE,152,0.0,0.0,87,0.00,,,0.06,,2013-10-28 22:23:00,
2013-10-28 18:43:00,55.0,52.0,30.19,SSE,152,0.0,0.0,88,0.00,,,0.06,,2013-10-28 22:43:00,
2013-10-28 18:53:00,55.0,52.0,30.19,SSE,152,0.0,0.0,89,0.00,,,0.06,,2013-10-28 22:53:00,
2013-10-28 19:12:00,54.0,51.0,30.20,SSE,152,0.0,1.0,89,0.00,,,0.06,,2013-10-28 23:12:00,
2013-10-28 19:22:00,54.0,51.0,30.19,SSE,152,0.0,1.0,89,0.00,,,0.06,,2013-10-28 23:22:00,
2013-10-28 19:42:00,54.0,51.0,30.20,SSE,152,0.0,2.0,89,0.00,,,0.06,,2013-10-28 23:42:00,
2013-10-28 19:52:00,54.0,51.0,30.20,SSE,152,0.0,2.0,89,0.00,,,0.06,,2013-10-28 23:52:00,
2013-10-28 20:22:00,53.0,50.0,30.21,SSE,152,0.0,1.0,90,0.00,,,0.06,,2013-10-29 00:22:00,
2013-10-28 20:42:00,53.0,50.0,30.22,SSE,152,0.0,1.0,90,0.00,,,0.06,,2013-10-29 00:42:00,
2013-10-28 20:52:00,53.0,50.0,30.22,SSE,152,0.0,1.0,90,0.00,,,0.06,,2013-10-29 00:52:00,
2013-10-28 21:11:00,53.0,50.0,30.22,SSE,152,0.0,1.0,91,0.00,,,0.06,,2013-10-29 01:11:00,
2013-10-28 21:22:00,53.0,50.0,30.22,SSE,152,0.0,1.0,91,0.00,,,0.06,,2013-10-29 01:22:00,
2013-10-28 21:42:00,53.0,50.0,30.22,SSE,152,0.0,0.0,91,0.00,,,0.06,,2013-10-29 01:42:00,
2013-10-28 21:52:00,53.0,50.0,30.22,SSE,152,1.0,1.0,91,0.00,,,0.06,,2013-10-29 01:52:00,
2013-10-28 22:11:00,53.0,50.0,30.22,SSE,152,0.0,1.0,91,0.00,,,0.06,,2013-10-29 02:11:00,
2013-10-28 22:21:00,53.0,50.0,30.22,SSE,152,0.0,0.0,91,0.00,,,0.06,,2013-10-29 02:21:00,
2013-10-28 22:44:00,52.0,49.0,30.23,SSE,152,0.0,1.0,91,0.00,,,0.06,,2013-10-29 02:44:00,
2013-10-28 22:53:00,52.0,50.0,30.22,SSE,152,0.0,0.0,92,0.00,,,0.06,,2013-10-29 02:53:00,
2013-10-28 23:14:00,52.0,50.0,30.23,SSE,152,0.0,1.0,92,0.00,,,0.06,,2013-10-29 03:14:00,
2013-10-28 23:27:00,52.0,50.0,30.23,SSE,152,0.0,1.0,92,0.00,,,0.06,,2013-10-29 03:27:00,
2013-10-28 23:40:00,-999.0,-99.9,30.23,SSE,152,0.0,0.0,92,0.00,,,0.06,,2013-10-29 03:40:00,
2013-10-28 23:48:00,52.0,50.0,30.23,SSE,152,0.0,0.0,92,0.00,,,0.06,,2013-10-29 03:48:00,
2013-10-28 23:55:00,52.0,50.0,30.22,SSE,152,0.0,0.0,92,0.00,,,0.06,,2013-10-29 03:55:00,